createdAt,value
2017-12-27T00:00:23.101Z,5.43
2017-12-27T00:01:03.680Z,5.41
2017-12-27T00:01:44.242Z,5.41
2017-12-27T00:02:24.838Z,5.3
2017-12-27T00:03:05.395Z,5.33
2017-12-27T00:03:45.962Z,5.33
2017-12-27T00:04:26.532Z,5.35
2017-12-27T00:05:07.143Z,5.35
2017-12-27T00:05:47.709Z,5.32
2017-12-27T00:06:28.279Z,5.35
2017-12-27T00:07:08.844Z,5.3
2017-12-27T00:07:49.416Z,5.33
2017-12-27T00:08:29.980Z,5.3
2017-12-27T00:09:10.556Z,5.35
2017-12-27T00:09:51.137Z,5.33
2017-12-27T00:10:31.699Z,5.38
2017-12-27T00:11:12.262Z,5.39
2017-12-27T00:11:52.825Z,5.38
2017-12-27T00:12:33.389Z,5.38
2017-12-27T00:13:13.955Z,5.43
2017-12-27T00:13:54.520Z,5.38
2017-12-27T00:14:35.080Z,5.36
2017-12-27T00:15:15.643Z,5.41
2017-12-27T00:15:56.210Z,5.36
2017-12-27T00:16:36.775Z,5.41
2017-12-27T00:17:17.339Z,5.35
2017-12-27T00:17:57.946Z,5.39
2017-12-27T00:18:38.518Z,5.41
2017-12-27T00:19:19.080Z,5.47
2017-12-27T00:19:59.644Z,5.47
2017-12-27T00:20:40.213Z,5.44
2017-12-27T00:21:20.789Z,5.39
2017-12-27T00:22:01.361Z,5.41
2017-12-27T00:22:41.938Z,5.39
2017-12-27T00:23:22.505Z,5.46
2017-12-27T00:24:03.071Z,5.39
2017-12-27T00:24:43.632Z,5.38
2017-12-27T00:25:24.186Z,5.41
2017-12-27T00:26:04.770Z,5.36
2017-12-27T00:26:45.387Z,5.36
2017-12-27T00:27:25.947Z,5.39
2017-12-27T00:28:06.522Z,5.47
2017-12-27T00:28:47.094Z,5.32
2017-12-27T00:29:27.697Z,5.43
2017-12-27T00:30:08.253Z,5.43
2017-12-27T00:30:48.837Z,5.36
2017-12-27T00:31:29.396Z,5.36
2017-12-27T00:32:09.965Z,5.38
2017-12-27T00:32:50.532Z,5.41
2017-12-27T00:33:31.102Z,5.41
2017-12-27T00:34:11.661Z,5.33
2017-12-27T00:34:52.238Z,5.29
2017-12-27T00:35:32.811Z,5.3
2017-12-27T00:36:13.378Z,5.3
2017-12-27T00:36:53.949Z,5.38
2017-12-27T00:37:34.524Z,5.26
2017-12-27T00:38:15.100Z,5.38
2017-12-27T00:38:55.662Z,5.35
2017-12-27T00:39:36.233Z,5.29
2017-12-27T00:40:16.799Z,5.32
2017-12-27T00:40:57.364Z,5.32
2017-12-27T00:41:37.920Z,5.32
2017-12-27T00:42:18.489Z,5.3
2017-12-27T00:42:59.068Z,5.35
2017-12-27T00:43:39.645Z,5.38
2017-12-27T00:44:20.195Z,5.32
2017-12-27T00:45:00.760Z,5.29
2017-12-27T00:45:41.310Z,5.35
2017-12-27T00:46:21.887Z,5.38
2017-12-27T00:47:02.495Z,5.29
2017-12-27T00:47:43.063Z,5.3
2017-12-27T00:48:23.631Z,5.3
2017-12-27T00:49:04.197Z,5.28
2017-12-27T00:49:44.765Z,5.23
2017-12-27T00:50:25.334Z,5.26
2017-12-27T00:51:05.906Z,5.23
2017-12-27T00:51:46.456Z,5.2
2017-12-27T00:52:27.015Z,5.17
2017-12-27T00:53:07.567Z,5.29
2017-12-27T00:53:48.138Z,5.21
2017-12-27T00:54:28.693Z,5.15
2017-12-27T00:55:09.253Z,5.15
2017-12-27T00:55:49.842Z,5.07
2017-12-27T00:56:30.410Z,5.07
2017-12-27T00:57:10.993Z,5.04
2017-12-27T00:57:51.549Z,5.08
2017-12-27T00:58:32.112Z,5.14
2017-12-27T00:59:12.683Z,5.15
2017-12-27T00:59:53.295Z,5.11
2017-12-27T01:00:33.853Z,5.14
2017-12-27T01:01:14.420Z,5.15
2017-12-27T01:01:54.977Z,5.18
2017-12-27T01:02:35.542Z,5.17
2017-12-27T01:03:16.103Z,5.15
2017-12-27T01:03:56.669Z,5.12
2017-12-27T01:04:37.234Z,5.17
2017-12-27T01:05:17.798Z,5.14
2017-12-27T01:05:58.378Z,5.17
2017-12-27T01:06:38.948Z,5.17
2017-12-27T01:07:19.510Z,5.1
2017-12-27T01:08:00.098Z,5.07
2017-12-27T01:08:40.626Z,5.07
2017-12-27T01:09:21.185Z,5.05
2017-12-27T01:10:01.747Z,5.08
2017-12-27T01:10:42.312Z,5.11
2017-12-27T01:11:22.892Z,5.07
2017-12-27T01:12:03.476Z,5.12
2017-12-27T01:12:44.052Z,5.08
2017-12-27T01:13:24.618Z,5.17
2017-12-27T01:14:05.184Z,5.2
2017-12-27T01:14:45.736Z,5.17
2017-12-27T01:15:27.280Z,5.18
2017-12-27T01:16:07.836Z,5.15
2017-12-27T01:16:48.431Z,5.29
2017-12-27T01:17:29.038Z,5.17
2017-12-27T01:18:09.599Z,5.18
2017-12-27T01:18:50.185Z,5.18
2017-12-27T01:19:30.757Z,5.14
2017-12-27T01:20:11.311Z,5.17
2017-12-27T01:20:51.896Z,5.12
2017-12-27T01:21:32.489Z,5.21
2017-12-27T01:22:13.061Z,5.23
2017-12-27T01:22:53.626Z,5.21
2017-12-27T01:23:34.221Z,5.21
2017-12-27T01:24:14.797Z,5.21
2017-12-27T01:24:55.365Z,5.25
2017-12-27T01:25:35.930Z,5.25
2017-12-27T01:26:16.503Z,5.18
2017-12-27T01:26:57.062Z,5.2
2017-12-27T01:27:37.634Z,5.2
2017-12-27T01:28:18.191Z,5.21
2017-12-27T01:28:58.770Z,5.26
2017-12-27T01:29:39.365Z,5.26
2017-12-27T01:30:19.967Z,5.2
2017-12-27T01:31:00.568Z,5.21
2017-12-27T01:31:41.168Z,5.25
2017-12-27T01:32:21.763Z,5.18
2017-12-27T01:33:02.330Z,5.25
2017-12-27T01:33:42.908Z,5.25
2017-12-27T01:34:23.480Z,5.25
2017-12-27T01:35:04.051Z,5.28
2017-12-27T01:35:44.618Z,5.25
2017-12-27T01:36:25.176Z,5.18
2017-12-27T01:37:05.731Z,5.18
2017-12-27T01:37:46.286Z,5.14
2017-12-27T01:38:26.845Z,5.23
2017-12-27T01:39:07.408Z,5.29
2017-12-27T01:39:48.001Z,5.23
2017-12-27T01:40:28.582Z,5.26
2017-12-27T01:41:09.132Z,5.15
2017-12-27T01:41:49.687Z,5.17
2017-12-27T01:42:30.251Z,5.15
2017-12-27T01:43:10.815Z,5.14
2017-12-27T01:43:51.379Z,5.17
2017-12-27T01:44:31.931Z,5.18
2017-12-27T01:45:12.494Z,5.12
2017-12-27T01:45:53.059Z,5.07
2017-12-27T01:46:34.487Z,5.2
2017-12-27T01:47:15.039Z,5.15
2017-12-27T01:47:55.611Z,5.11
2017-12-27T01:48:36.158Z,5.08
2017-12-27T01:49:16.717Z,5.12
2017-12-27T01:49:57.286Z,5.15
2017-12-27T01:50:37.837Z,5.11
2017-12-27T01:51:18.411Z,5.14
2017-12-27T01:51:58.985Z,5.05
2017-12-27T01:52:39.560Z,5.12
2017-12-27T01:53:20.123Z,5.11
2017-12-27T01:54:00.675Z,5.04
2017-12-27T01:54:41.237Z,5.1
2017-12-27T01:55:21.818Z,5.12
2017-12-27T01:56:02.389Z,5.07
2017-12-27T01:56:42.982Z,5.05
2017-12-27T01:57:23.555Z,5.08
2017-12-27T01:58:04.127Z,5.11
2017-12-27T01:58:44.686Z,5.1
2017-12-27T01:59:25.245Z,5.02
2017-12-27T02:00:05.807Z,5.1
2017-12-27T02:00:46.358Z,5.04
2017-12-27T02:01:26.938Z,5.05
2017-12-27T02:02:07.533Z,5.07
2017-12-27T02:02:48.112Z,5.1
2017-12-27T02:03:28.750Z,5.14
2017-12-27T02:04:09.363Z,5.08
2017-12-27T02:04:49.914Z,5.07
2017-12-27T02:05:30.485Z,5.11
2017-12-27T02:06:11.049Z,5.02
2017-12-27T02:06:51.611Z,5.1
2017-12-27T02:07:32.175Z,5
2017-12-27T02:08:12.762Z,5
2017-12-27T02:08:53.331Z,4.99
2017-12-27T02:09:33.909Z,5.04
2017-12-27T02:10:14.477Z,5
2017-12-27T02:10:55.048Z,5.02
2017-12-27T02:11:35.613Z,5.07
2017-12-27T02:12:16.187Z,5
2017-12-27T02:12:56.766Z,5
2017-12-27T02:13:37.352Z,5.02
2017-12-27T02:14:17.905Z,5.04
2017-12-27T02:14:58.464Z,5
2017-12-27T02:15:39.020Z,5.1
2017-12-27T02:16:19.582Z,5.1
2017-12-27T02:17:00.141Z,5
2017-12-27T02:17:40.694Z,5
2017-12-27T02:18:21.263Z,5
2017-12-27T02:19:01.834Z,5.05
2017-12-27T02:19:42.384Z,5.02
2017-12-27T02:20:22.937Z,5.02
2017-12-27T02:21:03.502Z,5.07
2017-12-27T02:21:44.082Z,5.1
2017-12-27T02:22:24.648Z,4.99
2017-12-27T02:23:05.202Z,5.08
2017-12-27T02:23:45.763Z,4.96
2017-12-27T02:24:26.343Z,5.04
2017-12-27T02:25:06.900Z,5.05
2017-12-27T02:25:47.474Z,5.02
2017-12-27T02:26:28.032Z,5
2017-12-27T02:27:08.598Z,5.04
2017-12-27T02:27:49.162Z,5.1
2017-12-27T02:28:29.747Z,5.08
2017-12-27T02:29:10.296Z,4.97
2017-12-27T02:29:50.869Z,5
2017-12-27T02:30:31.424Z,5.02
2017-12-27T02:31:11.998Z,5.07
2017-12-27T02:31:52.579Z,5.02
2017-12-27T02:32:33.142Z,4.94
2017-12-27T02:33:13.707Z,5
2017-12-27T02:33:54.277Z,5.04
2017-12-27T02:34:34.836Z,5.02
2017-12-27T02:35:15.408Z,5
2017-12-27T02:35:55.994Z,5.07
2017-12-27T02:36:36.548Z,5
2017-12-27T02:37:17.100Z,4.96
2017-12-27T02:37:57.656Z,5.04
2017-12-27T02:38:38.218Z,5.02
2017-12-27T02:39:18.789Z,5.07
2017-12-27T02:39:59.378Z,5
2017-12-27T02:40:39.934Z,4.94
2017-12-27T02:41:20.489Z,5.02
2017-12-27T02:42:01.069Z,4.96
2017-12-27T02:42:41.638Z,5.02
2017-12-27T02:43:22.191Z,4.93
2017-12-27T02:44:02.751Z,4.97
2017-12-27T02:44:43.312Z,4.94
2017-12-27T02:45:23.873Z,4.94
2017-12-27T02:46:04.455Z,4.93
2017-12-27T02:46:45.017Z,4.93
2017-12-27T02:47:25.600Z,4.9
2017-12-27T02:48:06.171Z,4.92
2017-12-27T02:48:46.721Z,4.9
2017-12-27T02:49:27.275Z,4.96
2017-12-27T02:50:07.837Z,4.96
2017-12-27T02:50:48.398Z,4.94
2017-12-27T02:51:28.965Z,4.96
2017-12-27T02:52:09.524Z,4.96
2017-12-27T02:52:50.088Z,5
2017-12-27T02:53:30.659Z,4.94
2017-12-27T02:54:11.230Z,4.99
2017-12-27T02:54:51.797Z,4.99
2017-12-27T02:55:32.371Z,5
2017-12-27T02:56:12.927Z,4.97
2017-12-27T02:56:53.503Z,5
2017-12-27T02:57:34.065Z,4.94
2017-12-27T02:58:14.623Z,4.99
2017-12-27T02:58:55.173Z,4.92
2017-12-27T02:59:35.730Z,4.92
2017-12-27T03:00:16.300Z,4.97
2017-12-27T03:00:56.863Z,5
2017-12-27T03:01:37.418Z,5
2017-12-27T03:02:17.975Z,4.96
2017-12-27T03:02:58.536Z,4.96
2017-12-27T03:03:39.124Z,4.93
2017-12-27T03:04:19.701Z,4.96
2017-12-27T03:05:00.278Z,4.92
2017-12-27T03:05:40.865Z,4.94
2017-12-27T03:06:21.454Z,4.92
2017-12-27T03:07:02.033Z,4.92
2017-12-27T03:07:42.612Z,4.75
2017-12-27T03:08:23.176Z,4.8
2017-12-27T03:09:03.746Z,4.74
2017-12-27T03:09:44.314Z,4.78
2017-12-27T03:10:24.908Z,4.71
2017-12-27T03:11:05.481Z,4.74
2017-12-27T03:11:46.038Z,4.71
2017-12-27T03:12:26.610Z,4.74
2017-12-27T03:13:07.200Z,4.7
2017-12-27T03:13:47.759Z,4.66
2017-12-27T03:14:28.330Z,4.7
2017-12-27T03:15:08.891Z,4.62
2017-12-27T03:15:49.464Z,4.62
2017-12-27T03:16:30.064Z,4.68
2017-12-27T03:17:10.642Z,4.62
2017-12-27T03:17:51.220Z,4.66
2017-12-27T03:18:31.803Z,4.53
2017-12-27T03:19:12.388Z,4.53
2017-12-27T03:19:52.962Z,4.52
2017-12-27T03:20:33.554Z,4.55
2017-12-27T03:21:14.108Z,4.49
2017-12-27T03:21:54.690Z,4.58
2017-12-27T03:22:35.246Z,4.45
2017-12-27T03:23:15.834Z,4.45
2017-12-27T03:23:56.426Z,4.56
2017-12-27T03:24:36.996Z,4.49
2017-12-27T03:25:17.572Z,4.5
2017-12-27T03:25:58.136Z,4.5
2017-12-27T03:26:38.701Z,4.44
2017-12-27T03:27:19.260Z,4.45
2017-12-27T03:27:59.824Z,4.44
2017-12-27T03:28:40.389Z,4.38
2017-12-27T03:29:20.956Z,4.48
2017-12-27T03:30:01.522Z,4.34
2017-12-27T03:30:42.102Z,4.45
2017-12-27T03:31:22.659Z,4.42
2017-12-27T03:32:03.208Z,4.48
2017-12-27T03:32:43.773Z,4.44
2017-12-27T03:33:24.353Z,4.44
2017-12-27T03:34:04.907Z,4.44
2017-12-27T03:34:45.524Z,4.48
2017-12-27T03:35:26.029Z,4.44
2017-12-27T03:36:06.586Z,4.52
2017-12-27T03:36:47.146Z,4.48
2017-12-27T03:37:27.718Z,4.42
2017-12-27T03:38:08.287Z,4.45
2017-12-27T03:38:48.843Z,4.4
2017-12-27T03:39:29.408Z,4.35
2017-12-27T03:40:09.966Z,4.35
2017-12-27T03:40:50.518Z,4.38
2017-12-27T03:41:31.086Z,4.34
2017-12-27T03:42:11.639Z,4.3
2017-12-27T03:42:52.208Z,4.28
2017-12-27T03:43:32.774Z,4.31
2017-12-27T03:44:13.336Z,4.31
2017-12-27T03:44:53.898Z,4.35
2017-12-27T03:45:34.477Z,4.32
2017-12-27T03:46:15.045Z,4.28
2017-12-27T03:46:55.613Z,4.35
2017-12-27T03:47:36.177Z,4.37
2017-12-27T03:48:16.733Z,4.24
2017-12-27T03:48:57.284Z,4.31
2017-12-27T03:49:37.846Z,4.32
2017-12-27T03:50:18.415Z,4.35
2017-12-27T03:50:58.985Z,4.24
2017-12-27T03:51:39.557Z,4.32
2017-12-27T03:52:20.119Z,4.23
2017-12-27T03:53:00.698Z,4.34
2017-12-27T03:53:41.268Z,4.34
2017-12-27T03:54:21.857Z,4.3
2017-12-27T03:55:02.407Z,4.32
2017-12-27T03:55:42.965Z,4.28
2017-12-27T03:56:23.526Z,4.37
2017-12-27T03:57:04.082Z,4.31
2017-12-27T03:57:44.641Z,4.32
2017-12-27T03:58:25.208Z,4.17
2017-12-27T03:59:05.774Z,4.22
2017-12-27T03:59:46.339Z,4.22
2017-12-27T04:00:27.781Z,4.23
2017-12-27T04:01:08.476Z,4.22
2017-12-27T04:01:49.094Z,4.28
2017-12-27T04:02:29.661Z,4.23
2017-12-27T04:03:10.226Z,4.22
2017-12-27T04:03:50.817Z,4.17
2017-12-27T04:04:31.404Z,4.16
2017-12-27T04:05:11.970Z,4.19
2017-12-27T04:05:52.534Z,4.19
2017-12-27T04:06:33.120Z,4.19
2017-12-27T04:07:13.696Z,4.17
2017-12-27T04:07:54.273Z,4.23
2017-12-27T04:08:34.829Z,4.22
2017-12-27T04:09:15.390Z,4.22
2017-12-27T04:09:55.965Z,4.23
2017-12-27T04:10:36.537Z,4.26
2017-12-27T04:11:17.137Z,4.23
2017-12-27T04:11:57.719Z,4.22
2017-12-27T04:12:38.308Z,4.28
2017-12-27T04:13:18.881Z,4.31
2017-12-27T04:13:59.440Z,4.2
2017-12-27T04:14:39.999Z,4.35
2017-12-27T04:15:20.557Z,4.31
2017-12-27T04:16:01.125Z,4.23
2017-12-27T04:16:41.695Z,4.34
2017-12-27T04:17:22.261Z,4.35
2017-12-27T04:18:02.825Z,4.35
2017-12-27T04:18:43.394Z,4.35
2017-12-27T04:19:23.957Z,4.3
2017-12-27T04:20:04.526Z,4.3
2017-12-27T04:20:46.987Z,4.34
2017-12-27T04:21:27.563Z,4.34
2017-12-27T04:22:08.121Z,4.31
2017-12-27T04:22:48.685Z,4.34
2017-12-27T04:23:29.250Z,4.31
2017-12-27T04:24:09.811Z,4.31
2017-12-27T04:24:50.362Z,4.35
2017-12-27T04:25:30.929Z,4.34
2017-12-27T04:26:11.487Z,4.32
2017-12-27T04:26:52.062Z,4.19
2017-12-27T04:27:32.644Z,4.22
2017-12-27T04:28:13.217Z,4.3
2017-12-27T04:28:53.778Z,4.23
2017-12-27T04:29:34.347Z,4.23
2017-12-27T04:30:14.915Z,4.23
2017-12-27T04:30:55.489Z,4.22
2017-12-27T04:31:36.072Z,4.28
2017-12-27T04:32:16.636Z,4.22
2017-12-27T04:32:57.199Z,4.3
2017-12-27T04:33:37.763Z,4.22
2017-12-27T04:34:18.346Z,4.26
2017-12-27T04:34:58.909Z,4.16
2017-12-27T04:35:40.275Z,4.19
2017-12-27T04:36:20.827Z,4.24
2017-12-27T04:37:01.409Z,4.19
2017-12-27T04:37:41.972Z,4.2
2017-12-27T04:38:22.528Z,4.17
2017-12-27T04:39:03.079Z,4.19
2017-12-27T04:39:43.651Z,4.16
2017-12-27T04:40:24.221Z,4.13
2017-12-27T04:41:04.779Z,4.23
2017-12-27T04:41:45.336Z,4.05
2017-12-27T04:42:25.901Z,4.08
2017-12-27T04:43:06.477Z,4.13
2017-12-27T04:43:47.027Z,4.08
2017-12-27T04:44:27.591Z,4.1
2017-12-27T04:45:08.161Z,4.1
2017-12-27T04:45:48.719Z,4.06
2017-12-27T04:46:29.290Z,4.04
2017-12-27T04:47:09.861Z,4.01
2017-12-27T04:47:50.428Z,4.05
2017-12-27T04:48:30.985Z,4.04
2017-12-27T04:49:11.545Z,4.1
2017-12-27T04:49:52.155Z,4.04
2017-12-27T04:50:32.749Z,3.99
2017-12-27T04:51:13.310Z,4.01
2017-12-27T04:51:53.895Z,4.01
2017-12-27T04:52:34.468Z,3.96
2017-12-27T04:53:15.041Z,3.92
2017-12-27T04:53:55.596Z,3.88
2017-12-27T04:54:36.163Z,4.01
2017-12-27T04:55:16.722Z,3.91
2017-12-27T04:55:57.309Z,3.96
2017-12-27T04:56:37.868Z,3.88
2017-12-27T04:57:18.445Z,3.83
2017-12-27T04:57:59.030Z,3.88
2017-12-27T04:58:39.603Z,3.81
2017-12-27T04:59:20.171Z,3.78
2017-12-27T05:00:00.750Z,3.78
2017-12-27T05:00:41.301Z,3.8
2017-12-27T05:01:21.870Z,3.81
2017-12-27T05:02:02.446Z,3.81
2017-12-27T05:02:43.012Z,3.81
2017-12-27T05:03:23.577Z,3.78
2017-12-27T05:04:04.146Z,3.8
2017-12-27T05:04:44.710Z,3.77
2017-12-27T05:05:25.266Z,3.81
2017-12-27T05:06:05.849Z,3.8
2017-12-27T05:06:46.424Z,3.87
2017-12-27T05:07:26.980Z,3.81
2017-12-27T05:08:07.563Z,3.77
2017-12-27T05:08:48.131Z,3.81
2017-12-27T05:09:28.703Z,3.8
2017-12-27T05:10:09.270Z,3.83
2017-12-27T05:10:50.590Z,3.81
2017-12-27T05:11:31.179Z,3.81
2017-12-27T05:12:11.758Z,3.78
2017-12-27T05:12:52.326Z,3.83
2017-12-27T05:13:32.890Z,3.81
2017-12-27T05:14:13.474Z,3.78
2017-12-27T05:14:54.061Z,3.83
2017-12-27T05:15:34.646Z,3.78
2017-12-27T05:16:15.214Z,3.78
2017-12-27T05:16:55.779Z,3.77
2017-12-27T05:17:36.343Z,3.8
2017-12-27T05:18:16.917Z,3.8
2017-12-27T05:18:57.491Z,3.77
2017-12-27T05:19:38.054Z,3.76
2017-12-27T05:20:18.613Z,3.81
2017-12-27T05:20:59.188Z,3.7
2017-12-27T05:21:39.756Z,3.78
2017-12-27T05:22:20.324Z,3.78
2017-12-27T05:23:00.874Z,3.78
2017-12-27T05:23:41.448Z,3.73
2017-12-27T05:24:22.012Z,3.74
2017-12-27T05:25:02.588Z,3.73
2017-12-27T05:25:43.143Z,3.8
2017-12-27T05:26:23.713Z,3.69
2017-12-27T05:27:04.277Z,3.68
2017-12-27T05:27:44.838Z,3.73
2017-12-27T05:28:25.398Z,3.65
2017-12-27T05:29:05.958Z,3.58
2017-12-27T05:29:46.518Z,3.65
2017-12-27T05:30:27.083Z,3.62
2017-12-27T05:31:07.634Z,3.6
2017-12-27T05:31:48.198Z,3.51
2017-12-27T05:32:28.755Z,3.58
2017-12-27T05:33:09.322Z,3.58
2017-12-27T05:33:49.881Z,3.5
2017-12-27T05:34:30.443Z,3.53
2017-12-27T05:35:10.997Z,3.5
2017-12-27T05:35:51.559Z,3.47
2017-12-27T05:36:32.125Z,3.48
2017-12-27T05:37:12.693Z,3.5
2017-12-27T05:37:53.256Z,3.51
2017-12-27T05:38:33.815Z,3.5
2017-12-27T05:39:14.381Z,3.51
2017-12-27T05:39:54.940Z,3.55
2017-12-27T05:40:35.505Z,3.53
2017-12-27T05:41:16.067Z,3.53
2017-12-27T05:41:56.620Z,3.58
2017-12-27T05:42:37.170Z,3.51
2017-12-27T05:43:17.756Z,3.48
2017-12-27T05:43:58.309Z,3.56
2017-12-27T05:44:38.866Z,3.62
2017-12-27T05:45:19.433Z,3.59
2017-12-27T05:45:59.989Z,3.62
2017-12-27T05:46:40.559Z,3.56
2017-12-27T05:47:21.126Z,3.66
2017-12-27T05:48:01.687Z,3.63
2017-12-27T05:48:42.239Z,3.59
2017-12-27T05:49:22.800Z,3.58
2017-12-27T05:50:03.369Z,3.66
2017-12-27T05:50:43.927Z,3.48
2017-12-27T05:51:24.494Z,3.55
2017-12-27T05:52:05.062Z,3.56
2017-12-27T05:52:45.650Z,3.47
2017-12-27T05:53:26.238Z,3.5
2017-12-27T05:54:06.799Z,3.56
2017-12-27T05:54:47.362Z,3.56
2017-12-27T05:55:28.770Z,3.51
2017-12-27T05:56:09.334Z,3.55
2017-12-27T05:56:49.894Z,3.5
2017-12-27T05:57:30.477Z,3.53
2017-12-27T05:58:11.033Z,3.55
2017-12-27T05:58:51.621Z,3.47
2017-12-27T05:59:32.200Z,3.51
2017-12-27T06:00:12.776Z,3.51
2017-12-27T06:00:53.352Z,3.51
2017-12-27T06:01:33.922Z,3.58
2017-12-27T06:02:14.492Z,3.53
2017-12-27T06:02:55.059Z,3.62
2017-12-27T06:03:35.631Z,3.56
2017-12-27T06:04:16.195Z,3.59
2017-12-27T06:04:56.770Z,3.62
2017-12-27T06:05:37.331Z,3.6
2017-12-27T06:06:17.904Z,3.55
2017-12-27T06:06:58.488Z,3.59
2017-12-27T06:07:39.059Z,3.58
2017-12-27T06:08:19.623Z,3.66
2017-12-27T06:09:00.185Z,3.56
2017-12-27T06:09:40.749Z,3.5
2017-12-27T06:10:21.309Z,3.5
2017-12-27T06:11:02.719Z,3.6
2017-12-27T06:11:43.285Z,3.6
2017-12-27T06:12:23.882Z,3.63
2017-12-27T06:13:04.452Z,3.63
2017-12-27T06:13:45.010Z,3.6
2017-12-27T06:14:25.588Z,3.63
2017-12-27T06:15:06.160Z,3.59
2017-12-27T06:15:46.722Z,3.63
2017-12-27T06:16:27.282Z,3.6
2017-12-27T06:17:07.842Z,3.62
2017-12-27T06:17:48.404Z,3.59
2017-12-27T06:18:28.980Z,3.63
2017-12-27T06:19:09.549Z,3.63
2017-12-27T06:19:50.107Z,3.56
2017-12-27T06:20:30.687Z,3.66
2017-12-27T06:21:11.248Z,3.55
2017-12-27T06:21:51.849Z,3.48
2017-12-27T06:22:32.437Z,3.59
2017-12-27T06:23:12.995Z,3.51
2017-12-27T06:23:53.567Z,3.56
2017-12-27T06:24:34.127Z,3.5
2017-12-27T06:25:14.688Z,3.55
2017-12-27T06:25:55.248Z,3.5
2017-12-27T06:26:35.818Z,3.51
2017-12-27T06:27:16.391Z,3.51
2017-12-27T06:27:56.954Z,3.5
2017-12-27T06:28:37.566Z,3.5
2017-12-27T06:29:18.251Z,3.51
2017-12-27T06:29:58.709Z,3.55
2017-12-27T06:30:39.269Z,3.42
2017-12-27T06:31:19.898Z,3.44
2017-12-27T06:32:00.468Z,3.34
2017-12-27T06:32:41.058Z,3.44
2017-12-27T06:33:21.631Z,3.44
2017-12-27T06:34:02.206Z,3.48
2017-12-27T06:34:42.823Z,3.44
2017-12-27T06:35:23.385Z,3.48
2017-12-27T06:36:03.981Z,3.59
2017-12-27T06:36:44.550Z,3.5
2017-12-27T06:37:25.109Z,3.5
2017-12-27T06:38:05.706Z,3.51
2017-12-27T06:38:46.255Z,3.58
2017-12-27T06:39:26.827Z,3.56
2017-12-27T06:40:07.387Z,3.58
2017-12-27T06:40:47.989Z,3.58
2017-12-27T06:41:28.597Z,3.59
2017-12-27T06:42:09.164Z,3.65
2017-12-27T06:42:49.754Z,3.59
2017-12-27T06:43:30.310Z,3.63
2017-12-27T06:44:10.881Z,3.62
2017-12-27T06:44:51.483Z,3.63
2017-12-27T06:45:32.050Z,3.55
2017-12-27T06:46:12.615Z,3.69
2017-12-27T06:46:53.191Z,3.63
2017-12-27T06:47:33.752Z,3.65
2017-12-27T06:48:14.325Z,3.6
2017-12-27T06:48:54.919Z,3.65
2017-12-27T06:49:35.516Z,3.65
2017-12-27T06:50:16.124Z,3.59
2017-12-27T06:50:56.697Z,3.65
2017-12-27T06:51:37.280Z,3.6
2017-12-27T06:52:17.897Z,3.73
2017-12-27T06:52:58.486Z,3.68
2017-12-27T06:53:39.246Z,3.66
2017-12-27T06:54:20.815Z,3.65
2017-12-27T06:55:01.520Z,3.68
2017-12-27T06:55:42.086Z,3.68
2017-12-27T06:56:22.654Z,3.66
2017-12-27T06:57:03.223Z,3.73
2017-12-27T06:57:43.796Z,3.66
2017-12-27T06:58:24.385Z,3.68
2017-12-27T06:59:04.975Z,3.6
2017-12-27T06:59:45.539Z,3.66
2017-12-27T07:00:26.088Z,3.55
2017-12-27T07:01:06.658Z,3.59
2017-12-27T07:01:47.217Z,3.63
2017-12-27T07:02:27.779Z,3.6
2017-12-27T07:03:08.436Z,3.59
2017-12-27T07:03:49.000Z,3.55
2017-12-27T07:04:29.573Z,3.58
2017-12-27T07:05:10.161Z,3.55
2017-12-27T07:05:50.732Z,3.53
2017-12-27T07:06:31.295Z,3.56
2017-12-27T07:07:11.873Z,3.47
2017-12-27T07:07:52.443Z,3.51
2017-12-27T07:08:33.002Z,3.45
2017-12-27T07:09:13.561Z,3.51
2017-12-27T07:09:54.131Z,3.51
2017-12-27T07:10:34.683Z,3.42
2017-12-27T07:11:15.249Z,3.47
2017-12-27T07:11:55.842Z,3.45
2017-12-27T07:12:38.266Z,3.5
2017-12-27T07:14:26.648Z,3.56
2017-12-27T07:15:07.212Z,3.59
2017-12-27T07:15:47.773Z,3.53
2017-12-27T07:16:28.337Z,3.5
2017-12-27T07:17:08.914Z,3.53
2017-12-27T07:17:49.471Z,3.53
2017-12-27T07:18:30.059Z,3.48
2017-12-27T07:19:10.609Z,3.48
2017-12-27T07:19:51.183Z,3.48
2017-12-27T07:20:31.728Z,3.48
2017-12-27T07:21:12.291Z,3.41
2017-12-27T07:21:52.837Z,3.44
2017-12-27T07:22:33.409Z,3.47
2017-12-27T07:23:13.962Z,3.41
2017-12-27T07:23:54.511Z,3.45
2017-12-27T07:24:35.081Z,3.42
2017-12-27T07:25:15.634Z,3.44
2017-12-27T07:25:56.211Z,3.4
2017-12-27T07:26:36.779Z,3.42
2017-12-27T07:27:17.341Z,3.34
2017-12-27T07:27:57.918Z,3.37
2017-12-27T07:28:38.488Z,3.37
2017-12-27T07:29:19.053Z,3.32
2017-12-27T07:29:59.635Z,3.37
2017-12-27T07:30:40.240Z,3.36
2017-12-27T07:31:20.776Z,3.37
2017-12-27T07:32:01.377Z,3.42
2017-12-27T07:32:41.943Z,3.34
2017-12-27T07:33:22.518Z,3.4
2017-12-27T07:34:03.080Z,3.32
2017-12-27T07:34:43.649Z,3.37
2017-12-27T07:35:24.216Z,3.34
2017-12-27T07:36:04.784Z,3.28
2017-12-27T07:36:45.362Z,3.31
2017-12-27T07:37:25.948Z,3.31
2017-12-27T07:38:06.504Z,3.31
2017-12-27T07:38:47.078Z,3.37
2017-12-27T07:39:27.634Z,3.31
2017-12-27T07:40:08.184Z,3.31
2017-12-27T07:40:48.760Z,3.36
2017-12-27T07:41:29.336Z,3.4
2017-12-27T07:42:09.892Z,3.28
2017-12-27T07:42:50.443Z,3.34
2017-12-27T07:43:31.003Z,3.34
2017-12-27T07:44:11.561Z,3.32
2017-12-27T07:44:52.142Z,3.29
2017-12-27T07:45:32.716Z,3.28
2017-12-27T07:46:13.268Z,3.36
2017-12-27T07:46:53.862Z,3.25
2017-12-27T07:47:34.428Z,3.37
2017-12-27T07:48:15.008Z,3.37
2017-12-27T07:48:55.588Z,3.4
2017-12-27T07:49:36.146Z,3.34
2017-12-27T07:50:16.717Z,3.31
2017-12-27T07:50:57.284Z,3.29
2017-12-27T07:51:37.858Z,3.32
2017-12-27T07:52:18.424Z,3.34
2017-12-27T07:52:58.990Z,3.31
2017-12-27T07:53:39.542Z,3.34
2017-12-27T07:54:20.100Z,3.4
2017-12-27T07:55:00.670Z,3.44
2017-12-27T07:55:41.232Z,3.45
2017-12-27T07:56:21.810Z,3.48
2017-12-27T07:57:02.377Z,3.5
2017-12-27T07:57:42.957Z,3.51
2017-12-27T07:58:23.519Z,3.51
2017-12-27T07:59:04.092Z,3.62
2017-12-27T07:59:44.655Z,3.66
2017-12-27T08:00:25.209Z,3.62
2017-12-27T08:01:05.771Z,3.65
2017-12-27T08:01:46.336Z,3.62
2017-12-27T08:02:26.883Z,3.65
2017-12-27T08:03:07.461Z,3.66
2017-12-27T08:03:48.042Z,3.62
2017-12-27T08:04:28.608Z,3.7
2017-12-27T08:05:09.183Z,3.68
2017-12-27T08:05:49.770Z,3.69
2017-12-27T08:06:30.337Z,3.73
2017-12-27T08:07:10.927Z,3.74
2017-12-27T08:07:51.508Z,3.76
2017-12-27T08:08:32.074Z,3.78
2017-12-27T08:09:12.636Z,3.8
2017-12-27T08:09:53.208Z,3.73
2017-12-27T08:10:33.777Z,3.77
2017-12-27T08:11:14.350Z,3.7
2017-12-27T08:11:54.917Z,3.81
2017-12-27T08:12:35.499Z,3.78
2017-12-27T08:13:16.063Z,3.8
2017-12-27T08:13:56.640Z,3.78
2017-12-27T08:14:37.208Z,3.81
2017-12-27T08:15:17.782Z,3.84
2017-12-27T08:15:58.333Z,3.73
2017-12-27T08:16:38.901Z,3.78
2017-12-27T08:17:19.470Z,3.81
2017-12-27T08:18:00.046Z,3.8
2017-12-27T08:18:40.633Z,3.68
2017-12-27T08:19:21.200Z,3.83
2017-12-27T08:20:01.776Z,3.84
2017-12-27T08:20:42.348Z,3.84
2017-12-27T08:21:22.933Z,3.84
2017-12-27T08:22:03.493Z,3.84
2017-12-27T08:22:44.059Z,3.81
2017-12-27T08:23:24.626Z,3.86
2017-12-27T08:24:05.204Z,3.86
2017-12-27T08:24:45.770Z,3.86
2017-12-27T08:25:26.341Z,3.86
2017-12-27T08:26:06.907Z,3.88
2017-12-27T08:26:47.477Z,3.84
2017-12-27T08:27:28.023Z,3.88
2017-12-27T08:28:08.588Z,3.84
2017-12-27T08:28:49.164Z,3.88
2017-12-27T08:29:29.725Z,3.87
2017-12-27T08:30:10.301Z,3.94
2017-12-27T08:30:50.870Z,3.83
2017-12-27T08:31:31.434Z,3.84
2017-12-27T08:32:11.994Z,3.87
2017-12-27T08:32:52.585Z,3.87
2017-12-27T08:33:33.156Z,3.91
2017-12-27T08:34:13.726Z,3.86
2017-12-27T08:34:54.300Z,3.98
2017-12-27T08:35:34.884Z,3.88
2017-12-27T08:36:15.455Z,3.94
2017-12-27T08:36:56.019Z,3.87
2017-12-27T08:37:36.602Z,3.96
2017-12-27T08:38:17.166Z,4.04
2017-12-27T08:38:57.724Z,4.08
2017-12-27T08:39:38.313Z,4.01
2017-12-27T08:40:18.888Z,4.04
2017-12-27T08:40:59.498Z,4.05
2017-12-27T08:41:40.095Z,4.06
2017-12-27T08:42:20.668Z,4.02
2017-12-27T08:43:01.239Z,4.1
2017-12-27T08:43:41.822Z,4.08
2017-12-27T08:44:22.414Z,4.08
2017-12-27T08:45:02.998Z,4.08
2017-12-27T08:45:43.564Z,4.22
2017-12-27T08:46:24.129Z,4.19
2017-12-27T08:47:04.683Z,4.24
2017-12-27T08:47:45.245Z,4.22
2017-12-27T08:48:25.805Z,4.19
2017-12-27T08:49:06.522Z,4.22
2017-12-27T08:49:47.126Z,4.22
2017-12-27T08:50:27.700Z,4.32
2017-12-27T08:51:08.264Z,4.32
2017-12-27T08:51:48.827Z,4.35
2017-12-27T08:52:29.409Z,4.35
2017-12-27T08:53:10.006Z,4.3
2017-12-27T08:53:50.579Z,4.26
2017-12-27T08:54:31.135Z,4.4
2017-12-27T08:55:11.699Z,4.45
2017-12-27T08:55:52.259Z,4.53
2017-12-27T08:56:32.814Z,4.55
2017-12-27T08:57:13.383Z,4.66
2017-12-27T08:57:53.980Z,4.62
2017-12-27T08:58:34.559Z,4.73
2017-12-27T08:59:15.110Z,4.75
2017-12-27T08:59:55.718Z,4.87
2017-12-27T09:00:36.274Z,5.04
2017-12-27T09:01:16.851Z,5.04
2017-12-27T09:01:57.419Z,5.17
2017-12-27T09:02:37.981Z,5.29
2017-12-27T09:03:18.543Z,5.33
2017-12-27T09:03:59.132Z,5.41
2017-12-27T09:04:39.710Z,5.38